Time;durP1;ratioP1;P1;durP2;ratioP2;P2;SDS_P1;SDS_P2;PMS_P1;PMS_P2;Temp;Humidity;BMP_temperature;BMP_pressure;BME280_temperature;BME280_humidity;BME280_pressure;Samples;Min_cycle;Max_cycle;Signal;HPM_P1;HPM_P2
2021/09/27 00:00:48;;;;;;;12.63;7.20;;;;;;;;;;4663010;30;32801;-63
2021/09/27 00:03:15;;;;;;;9.70;7.18;;;;;;;;;;4664000;30;32772;-62
2021/09/27 00:05:42;;;;;;;10.77;6.93;;;;;;;;;;4666021;30;35426;-64
2021/09/27 00:08:09;;;;;;;8.75;6.32;;;;;;;;;;4666718;30;32431;-63
2021/09/27 00:10:41;;;;;;;9.77;7.70;;;;;;;;;;4666381;30;32416;-63
2021/09/27 00:13:10;;;;;;;12.40;6.80;;;;;;;;;;4667252;30;32353;-65
2021/09/27 00:15:41;;;;;;;12.48;6.82;;;;;;;;;;4667268;30;34923;-65
2021/09/27 00:18:08;;;;;;;14.18;6.95;;;;;;;;;;4666972;30;32459;-63
2021/09/27 00:20:38;;;;;;;9.52;6.15;;;;;;;;;;4666791;30;32242;-65
2021/09/27 00:23:05;;;;;;;9.60;6.82;;;;;;;;;;4666709;30;32293;-64
2021/09/27 00:25:31;;;;;;;10.02;6.55;;;;;;;;;;4664974;30;32476;-64
2021/09/27 00:27:58;;;;;;;10.00;7.07;;;;;;;;;;4677121;30;35284;-63
2021/09/27 00:30:27;;;;;;;11.48;6.85;;;;;;;;;;4666425;30;32364;-64
2021/09/27 00:32:53;;;;;;;8.90;6.18;;;;;;;;;;4650910;30;32735;-64
2021/09/27 00:35:27;;;;;;;8.13;6.13;;;;;;;;;;4649245;30;32768;-64
2021/09/27 00:37:54;;;;;;;9.55;6.38;;;;;;;;;;4649337;30;35471;-65
2021/09/27 00:40:24;;;;;;;11.02;6.55;;;;;;;;;;4649306;30;32505;-63
2021/09/27 00:42:52;;;;;;;9.07;6.13;;;;;;;;;;4649272;30;32385;-64
2021/09/27 00:45:21;;;;;;;10.75;6.22;;;;;;;;;;4649610;30;32473;-63
2021/09/27 00:47:49;;;;;;;11.68;7.00;;;;;;;;;;4648778;30;32399;-64
2021/09/27 00:50:19;;;;;;;8.50;6.18;;;;;;;;;;4649189;30;35232;-64
2021/09/27 00:52:48;;;;;;;10.77;6.47;;;;;;;;;;4648571;30;32611;-64
2021/09/27 00:55:19;;;;;;;12.70;6.85;;;;;;;;;;4652317;30;32691;-63
2021/09/27 00:57:47;;;;;;;15.43;6.32;;;;;;;;;;4652342;30;32404;-64
2021/09/27 01:00:18;;;;;;;10.93;6.88;;;;;;;;;;4652868;30;34185;-64
2021/09/27 01:02:45;;;;;;;11.95;6.53;;;;;;;;;;4669390;30;32493;-64
2021/09/27 01:05:16;;;;;;;8.23;5.97;;;;;;;;;;4668469;30;32383;-64
2021/09/27 01:07:52;;;;;;;11.82;6.50;;;;;;;;;;4669102;30;32432;-62
2021/09/27 01:10:36;;;;;;;10.73;6.13;;;;;;;;;;4669284;30;32291;-63
2021/09/27 01:13:35;;;;;;;13.05;6.47;;;;;;;;;;4669020;30;35083;-64
2021/09/27 01:16:14;;;;;;;15.18;7.22;;;;;;;;;;4668714;30;32282;-62
2021/09/27 01:18:59;;;;;;;14.13;7.88;;;;;;;;;;4668055;30;32509;-64
2021/09/27 01:21:40;;;;;;;17.55;8.40;;;;;;;;;;4669075;30;32254;-63
2021/09/27 01:25:00;;;;;;;17.42;8.90;;;;;;;;;;4668288;30;34753;-65
2021/09/27 01:28:18;;;;;;;22.40;9.18;;;;;;;;;;4665320;30;32507;-64
2021/09/27 01:31:14;;;;;;;21.83;9.23;;;;;;;;;;4679197;30;32373;-64
2021/09/27 01:33:46;;;;;;;20.48;8.45;;;;;;;;;;4671591;30;34517;-63
2021/09/27 01:36:20;;;;;;;18.75;7.95;;;;;;;;;;4681437;30;32603;-63
2021/09/27 01:38:57;;;;;;;20.77;8.75;;;;;;;;;;4666699;30;34035;-63
2021/09/27 01:41:33;;;;;;;25.08;10.88;;;;;;;;;;4660991;30;32635;-63
2021/09/27 01:44:12;;;;;;;37.45;15.30;;;;;;;;;;4664471;30;32536;-63
2021/09/27 01:46:47;;;;;;;47.47;18.02;;;;;;;;;;4666165;30;32520;-64
2021/09/27 01:49:20;;;;;;;47.40;19.35;;;;;;;;;;4666715;30;34445;-62
2021/09/27 01:51:55;;;;;;;44.75;19.00;;;;;;;;;;4667092;30;32561;-62
2021/09/27 01:54:29;;;;;;;43.78;17.83;;;;;;;;;;4668514;30;32281;-62
2021/09/27 01:57:05;;;;;;;46.55;18.23;;;;;;;;;;4668467;30;32163;-63
2021/09/27 01:59:41;;;;;;;50.05;20.13;;;;;;;;;;4667810;30;32667;-64
2021/09/27 02:02:12;;;;;;;59.63;21.25;;;;;;;;;;4667159;30;32531;-61
2021/09/27 02:04:53;;;;;;;58.17;21.60;;;;;;;;;;4668156;30;32263;-62
2021/09/27 02:07:22;;;;;;;56.40;22.92;;;;;;;;;;4668131;30;32350;-62
2021/09/27 02:09:56;;;;;;;62.78;23.00;;;;;;;;;;4669148;30;32553;-63
2021/09/27 02:12:29;;;;;;;63.22;23.10;;;;;;;;;;4668084;30;34526;-61
2021/09/27 02:15:06;;;;;;;59.25;23.58;;;;;;;;;;4668570;30;32312;-64
2021/09/27 02:17:41;;;;;;;75.50;29.55;;;;;;;;;;4667746;30;32340;-63
2021/09/27 02:20:16;;;;;;;79.03;29.50;;;;;;;;;;4667591;30;32704;-63
2021/09/27 02:22:51;;;;;;;75.70;30.65;;;;;;;;;;4679117;30;32895;-62
2021/09/27 02:25:24;;;;;;;76.60;30.67;;;;;;;;;;4679666;30;32754;-62
2021/09/27 02:27:52;;;;;;;65.68;26.63;;;;;;;;;;4667645;30;32463;-64
2021/09/27 02:30:24;;;;;;;63.03;23.15;;;;;;;;;;4666230;30;32773;-64
2021/09/27 02:33:00;;;;;;;57.22;22.60;;;;;;;;;;4667149;30;32943;-62
2021/09/27 02:35:34;;;;;;;57.75;20.15;;;;;;;;;;4667802;30;35198;-64
2021/09/27 02:38:04;;;;;;;51.22;18.83;;;;;;;;;;4667582;30;32561;-63
2021/09/27 02:40:37;;;;;;;42.63;15.70;;;;;;;;;;4661687;30;32281;-65
2021/09/27 02:43:08;;;;;;;38.58;15.93;;;;;;;;;;4674604;30;33335;-64
2021/09/27 02:45:39;;;;;;;37.13;13.38;;;;;;;;;;4685128;30;32561;-65
2021/09/27 02:48:13;;;;;;;38.72;13.32;;;;;;;;;;4668802;30;32346;-64
2021/09/27 02:50:47;;;;;;;33.92;11.85;;;;;;;;;;4657426;30;32498;-62
2021/09/27 02:53:13;;;;;;;36.25;11.05;;;;;;;;;;4667325;30;32591;-63
2021/09/27 02:56:02;;;;;;;33.15;11.32;;;;;;;;;;4667524;30;32548;-61
2021/09/27 02:58:38;;;;;;;29.55;9.30;;;;;;;;;;4667711;30;34330;-61
2021/09/27 03:01:14;;;;;;;30.17;9.77;;;;;;;;;;4667214;30;32530;-63
2021/09/27 03:04:00;;;;;;;36.58;10.65;;;;;;;;;;4666667;30;32652;-63
2021/09/27 03:06:46;;;;;;;40.20;13.45;;;;;;;;;;4664273;30;32385;-61
2021/09/27 03:09:25;;;;;;;41.22;15.77;;;;;;;;;;4667346;30;32401;-61
2021/09/27 03:12:11;;;;;;;51.47;16.45;;;;;;;;;;4666539;30;32684;-62
2021/09/27 03:15:20;;;;;;;55.78;17.40;;;;;;;;;;4667767;30;32528;-62
2021/09/27 03:17:55;;;;;;;58.30;21.77;;;;;;;;;;4660207;30;32567;-60
2021/09/27 03:20:39;;;;;;;63.50;24.40;;;;;;;;;;4662866;30;32340;-62
2021/09/27 03:23:15;;;;;;;70.47;24.25;;;;;;;;;;4660525;30;34252;-60
2021/09/27 03:25:53;;;;;;;65.97;25.33;;;;;;;;;;4666974;30;32384;-61
2021/09/27 03:28:30;;;;;;;61.42;22.13;;;;;;;;;;4667172;30;32401;-61
2021/09/27 03:31:15;;;;;;;58.40;20.90;;;;;;;;;;4666332;30;32769;-63
2021/09/27 03:33:59;;;;;;;58.90;21.10;;;;;;;;;;4666067;30;32332;-61
2021/09/27 03:36:59;;;;;;;58.58;21.13;;;;;;;;;;4665870;30;32526;-61
2021/09/27 03:39:34;;;;;;;60.92;20.23;;;;;;;;;;4664187;30;32471;-62
2021/09/27 03:42:08;;;;;;;54.47;18.20;;;;;;;;;;4665400;30;32412;-61
2021/09/27 03:44:44;;;;;;;54.58;18.48;;;;;;;;;;4661951;30;32899;-61
2021/09/27 03:47:19;;;;;;;51.38;18.05;;;;;;;;;;4660470;30;35420;-62
2021/09/27 03:49:57;;;;;;;47.17;15.95;;;;;;;;;;4664338;30;32378;-62
2021/09/27 03:52:35;;;;;;;51.78;16.67;;;;;;;;;;4665767;30;32489;-61
2021/09/27 03:55:10;;;;;;;42.03;14.60;;;;;;;;;;4665772;30;32376;-61
2021/09/27 03:57:42;;;;;;;40.00;13.60;;;;;;;;;;4666152;30;32356;-61
2021/09/27 04:00:13;;;;;;;34.78;12.65;;;;;;;;;;4663779;30;32581;-61
2021/09/27 04:02:44;;;;;;;39.53;11.75;;;;;;;;;;4666625;30;32264;-62
2021/09/27 04:05:18;;;;;;;39.88;11.15;;;;;;;;;;4667083;30;32470;-61
2021/09/27 04:08:07;;;;;;;31.23;10.55;;;;;;;;;;4667852;30;32442;-62
2021/09/27 04:10:58;;;;;;;31.45;10.55;;;;;;;;;;4649707;30;34863;-62
2021/09/27 04:13:33;;;;;;;39.03;11.10;;;;;;;;;;4650002;30;32365;-61
2021/09/27 04:16:15;;;;;;;33.50;11.10;;;;;;;;;;4649436;30;32544;-61
2021/09/27 04:18:58;;;;;;;35.38;10.88;;;;;;;;;;4652615;30;32378;-62
2021/09/27 04:21:34;;;;;;;37.70;10.85;;;;;;;;;;4664856;30;34024;-64
2021/09/27 04:24:21;;;;;;;37.83;11.07;;;;;;;;;;4663662;30;32440;-62
2021/09/27 04:27:08;;;;;;;35.90;10.93;;;;;;;;;;4664590;30;32689;-63
2021/09/27 04:30:02;;;;;;;33.03;10.00;;;;;;;;;;4664616;30;32309;-62
2021/09/27 04:32:52;;;;;;;29.55;9.93;;;;;;;;;;4664407;30;32408;-63
2021/09/27 04:35:30;;;;;;;24.50;9.02;;;;;;;;;;4664462;30;34312;-61
2021/09/27 04:37:57;;;;;;;32.40;8.98;;;;;;;;;;4663985;30;32814;-61
2021/09/27 04:40:49;;;;;;;26.95;8.15;;;;;;;;;;4660609;30;32536;-63
2021/09/27 04:43:37;;;;;;;28.73;9.68;;;;;;;;;;4666542;30;32370;-62
2021/09/27 04:46:11;;;;;;;34.85;8.95;;;;;;;;;;4649996;30;34739;-62
2021/09/27 04:49:14;;;;;;;26.15;9.00;;;;;;;;;;4674676;30;33209;-62
2021/09/27 04:51:55;;;;;;;30.90;8.82;;;;;;;;;;4683707;30;32200;-62
2021/09/27 04:55:03;;;;;;;31.55;9.25;;;;;;;;;;4671696;30;32850;-64
2021/09/27 04:57:42;;;;;;;71.10;20.05;;;;;;;;;;4664489;30;32524;-63
2021/09/27 05:00:17;;;;;;;71.95;17.67;;;;;;;;;;4666995;30;34122;-65
2021/09/27 05:03:27;;;;;;;63.58;16.23;;;;;;;;;;4665642;30;32419;-62
2021/09/27 05:06:27;;;;;;;59.55;14.63;;;;;;;;;;4664551;30;32421;-64
2021/09/27 05:09:30;;;;;;;59.83;15.13;;;;;;;;;;4304009;32;32351;-62
2021/09/27 05:12:35;;;;;;;51.90;13.93;;;;;;;;;;4932144;28;32699;-63
2021/09/27 05:15:34;;;;;;;51.28;14.63;;;;;;;;;;4915547;28;33930;-63
2021/09/27 05:18:52;;;;;;;48.05;13.88;;;;;;;;;;4889023;28;32415;-61
2021/09/27 05:21:50;;;;;;;47.03;11.82;;;;;;;;;;4917396;28;32356;-62
2021/09/27 05:25:03;;;;;;;41.88;12.27;;;;;;;;;;4917932;28;32414;-62
2021/09/27 05:27:52;;;;;;;40.78;11.73;;;;;;;;;;4890797;28;32461;-62
2021/09/27 05:30:36;;;;;;;32.88;10.93;;;;;;;;;;4935261;28;34615;-64
2021/09/27 05:33:13;;;;;;;37.50;10.80;;;;;;;;;;4922923;28;32306;-63
2021/09/27 05:36:03;;;;;;;40.75;10.38;;;;;;;;;;4917543;28;32634;-64
2021/09/27 05:38:37;;;;;;;35.33;10.27;;;;;;;;;;4917710;28;32414;-64
2021/09/27 05:41:18;;;;;;;31.55;10.23;;;;;;;;;;4917523;28;33900;-62
2021/09/27 05:44:03;;;;;;;29.38;9.80;;;;;;;;;;4917840;28;32785;-64
2021/09/27 05:47:07;;;;;;;33.70;8.52;;;;;;;;;;4917463;28;32296;-63
2021/09/27 05:49:48;;;;;;;27.13;8.27;;;;;;;;;;4904588;28;32883;-64
2021/09/27 05:52:24;;;;;;;77.30;20.67;;;;;;;;;;4904412;28;32680;-65
2021/09/27 05:54:59;;;;;;;108.00;31.63;;;;;;;;;;4936445;28;34176;-63
2021/09/27 05:57:43;;;;;;;211.18;64.18;;;;;;;;;;4916041;28;32564;-63
2021/09/27 06:00:18;;;;;;;133.70;39.70;;;;;;;;;;4917306;28;32547;-63
2021/09/27 06:03:03;;;;;;;114.60;33.42;;;;;;;;;;4927264;28;32281;-63
2021/09/27 06:05:31;;;;;;;;;;;;;;;;;;4918355;28;35287;-62
2021/09/27 06:08:15;;;;;;;87.50;26.30;;;;;;;;;;4916507;28;32602;-61
2021/09/27 06:10:46;;;;;;;80.40;22.83;;;;;;;;;;4922860;28;32400;-63
2021/09/27 06:13:21;;;;;;;74.75;22.33;;;;;;;;;;4936300;28;32421;-63
2021/09/27 06:15:52;;;;;;;62.58;20.15;;;;;;;;;;4927294;28;32334;-64
2021/09/27 06:18:44;;;;;;;61.88;19.35;;;;;;;;;;4926778;28;34974;-65
2021/09/27 06:21:36;;;;;;;57.30;17.80;;;;;;;;;;4902780;28;32462;-65
2021/09/27 06:24:19;;;;;;;53.45;16.95;;;;;;;;;;4909217;28;33451;-60
2021/09/27 06:26:54;;;;;;;45.15;15.82;;;;;;;;;;4910645;28;32630;-64
2021/09/27 06:29:34;;;;;;;45.42;15.20;;;;;;;;;;4908683;28;35198;-62
2021/09/27 06:32:09;;;;;;;42.00;14.25;;;;;;;;;;4913027;28;32483;-63
2021/09/27 06:34:46;;;;;;;35.97;13.38;;;;;;;;;;4913938;28;32407;-62
2021/09/27 06:37:12;;;;;;;31.48;12.20;;;;;;;;;;4906024;28;32478;-62
2021/09/27 06:39:40;;;;;;;28.13;11.85;;;;;;;;;;4901987;28;32462;-62
2021/09/27 06:42:07;;;;;;;32.20;11.48;;;;;;;;;;4902991;28;35905;-64
2021/09/27 06:44:35;;;;;;;33.15;10.15;;;;;;;;;;4901639;28;32564;-63
2021/09/27 06:47:02;;;;;;;29.25;10.13;;;;;;;;;;4902434;28;32610;-62
2021/09/27 06:49:28;;;;;;;27.98;9.40;;;;;;;;;;4903884;28;32392;-64
2021/09/27 06:51:55;;;;;;;22.55;8.40;;;;;;;;;;4904035;28;33976;-65
2021/09/27 06:54:22;;;;;;;25.33;8.48;;;;;;;;;;4903295;28;32560;-63
2021/09/27 06:56:49;;;;;;;22.50;7.95;;;;;;;;;;4903238;28;32447;-63
2021/09/27 06:59:18;;;;;;;20.50;8.43;;;;;;;;;;4903591;28;32677;-63
2021/09/27 07:01:46;;;;;;;19.17;6.97;;;;;;;;;;4911990;28;32378;-63
2021/09/27 07:04:13;;;;;;;18.75;6.60;;;;;;;;;;4903645;28;34039;-62
2021/09/27 07:06:40;;;;;;;18.02;6.25;;;;;;;;;;4901421;28;32304;-65
2021/09/27 07:09:07;;;;;;;19.00;6.50;;;;;;;;;;4915594;28;32369;-62
2021/09/27 07:11:33;;;;;;;16.80;6.43;;;;;;;;;;4922643;28;32332;-65
2021/09/27 07:14:00;;;;;;;;;;;;;;;;;;4923034;28;34313;-62
2021/09/27 07:16:26;;;;;;;14.93;5.30;;;;;;;;;;4922423;28;32415;-64
2021/09/27 07:18:54;;;;;;;16.67;5.57;;;;;;;;;;4921795;28;32498;-62
2021/09/27 07:21:20;;;;;;;12.63;5.40;;;;;;;;;;4922894;28;32265;-63
2021/09/27 07:23:47;;;;;;;15.73;6.25;;;;;;;;;;4922606;28;32292;-65
2021/09/27 07:26:15;;;;;;;12.80;4.82;;;;;;;;;;4922508;28;34156;-65
2021/09/27 07:28:44;;;;;;;18.88;4.78;;;;;;;;;;4922261;28;32284;-65
2021/09/27 07:31:12;;;;;;;15.77;5.93;;;;;;;;;;4921086;28;32772;-63
2021/09/27 07:33:39;;;;;;;15.25;5.38;;;;;;;;;;4904694;28;32386;-63
2021/09/27 07:36:07;;;;;;;14.70;4.75;;;;;;;;;;4902617;28;34153;-64
2021/09/27 07:38:34;;;;;;;9.43;4.70;;;;;;;;;;4903380;28;32398;-64
2021/09/27 07:41:01;;;;;;;9.40;4.40;;;;;;;;;;4903085;28;32264;-64
2021/09/27 07:43:27;;;;;;;;;;;;;;;;;;4906193;28;32372;-65
2021/09/27 07:45:54;;;;;;;9.32;4.68;;;;;;;;;;4922604;28;32430;-65
2021/09/27 07:48:20;;;;;;;14.13;4.82;;;;;;;;;;4922247;28;34647;-64
2021/09/27 07:50:50;;;;;;;13.93;4.20;;;;;;;;;;4922386;28;32321;-62
2021/09/27 07:53:19;;;;;;;15.68;5.70;;;;;;;;;;4922200;28;32303;-66
2021/09/27 07:55:45;;;;;;;16.58;6.18;;;;;;;;;;4922463;28;32277;-65
2021/09/27 07:58:14;;;;;;;;;;;;;;;;;;4922742;28;34169;-63
2021/09/27 08:00:41;;;;;;;19.67;7.43;;;;;;;;;;4922117;28;32651;-64
2021/09/27 08:03:08;;;;;;;18.10;7.10;;;;;;;;;;4908529;28;32505;-66
2021/09/27 08:05:37;;;;;;;21.02;7.82;;;;;;;;;;4918407;28;32601;-65
2021/09/27 08:08:05;;;;;;;18.45;7.57;;;;;;;;;;4904111;28;32547;-63
2021/09/27 08:10:35;;;;;;;18.30;7.07;;;;;;;;;;4915338;28;35081;-63
2021/09/27 08:13:03;;;;;;;20.65;6.88;;;;;;;;;;4922164;28;32388;-67
2021/09/27 08:15:32;;;;;;;12.05;6.18;;;;;;;;;;4920908;28;32274;-64
2021/09/27 08:18:00;;;;;;;13.95;5.40;;;;;;;;;;4922071;28;32718;-63
2021/09/27 08:20:31;;;;;;;15.75;5.53;;;;;;;;;;4919991;28;34917;-67
2021/09/27 08:22:58;;;;;;;17.52;5.95;;;;;;;;;;4921895;28;32700;-65
2021/09/27 08:25:26;;;;;;;12.23;5.20;;;;;;;;;;4921884;28;32525;-67
2021/09/27 08:27:56;;;;;;;14.05;5.25;;;;;;;;;;4921035;28;32723;-65
2021/09/27 08:30:33;;;;;;;12.85;5.05;;;;;;;;;;4921889;28;32563;-66
2021/09/27 08:33:00;;;;;;;15.18;4.82;;;;;;;;;;4917247;28;34662;-66
2021/09/27 08:35:28;;;;;;;13.35;5.03;;;;;;;;;;4921995;28;32348;-65
2021/09/27 08:37:54;;;;;;;18.13;5.63;;;;;;;;;;4921746;28;32344;-63
2021/09/27 08:40:47;;;;;;;13.38;6.25;;;;;;;;;;4919251;28;32485;-65
2021/09/27 08:43:23;;;;;;;11.93;5.50;;;;;;;;;;4921258;28;34554;-68
2021/09/27 08:45:50;;;;;;;16.95;6.25;;;;;;;;;;4920810;28;32491;-69
2021/09/27 08:48:28;;;;;;;15.52;5.70;;;;;;;;;;4920575;28;32387;-65
2021/09/27 08:50:55;;;;;;;13.43;5.18;;;;;;;;;;4921765;28;32484;-64
2021/09/27 08:53:28;;;;;;;21.02;5.35;;;;;;;;;;4852651;28;32355;-64
2021/09/27 08:55:58;;;;;;;;;;;;;;;;;;4846628;29;34062;-63
2021/09/27 08:58:37;;;;;;;12.52;4.65;;;;;;;;;;4845615;29;32424;-65
2021/09/27 09:01:11;;;;;;;15.57;4.70;;;;;;;;;;4845854;29;32473;-66
2021/09/27 09:03:47;;;;;;;12.35;5.13;;;;;;;;;;4828779;29;32304;-65
2021/09/27 09:06:24;;;;;;;16.77;4.28;;;;;;;;;;4827471;29;35633;-64
2021/09/27 09:08:58;;;;;;;17.77;5.85;;;;;;;;;;4826510;29;32671;-65
2021/09/27 09:11:38;;;;;;;17.95;5.75;;;;;;;;;;4810179;29;32514;-63
2021/09/27 09:14:16;;;;;;;14.38;5.78;;;;;;;;;;4843128;29;32438;-64
2021/09/27 09:16:45;;;;;;;15.10;5.32;;;;;;;;;;4846167;29;32377;-63
2021/09/27 09:19:16;;;;;;;22.67;6.00;;;;;;;;;;4840153;29;35327;-64
2021/09/27 09:21:48;;;;;;;18.75;7.38;;;;;;;;;;4845417;29;32363;-62
2021/09/27 09:24:22;;;;;;;16.50;7.03;;;;;;;;;;4828788;29;32494;-63
2021/09/27 09:26:51;;;;;;;20.02;7.22;;;;;;;;;;4845737;29;32713;-63
2021/09/27 09:29:23;;;;;;;25.27;9.93;;;;;;;;;;4845226;29;34034;-64
2021/09/27 09:31:54;;;;;;;22.48;7.47;;;;;;;;;;4841927;29;32169;-65
2021/09/27 09:34:30;;;;;;;22.70;7.68;;;;;;;;;;4826862;29;32797;-64
2021/09/27 09:37:00;;;;;;;21.88;7.90;;;;;;;;;;4827157;29;32652;-62
2021/09/27 09:39:30;;;;;;;19.20;7.60;;;;;;;;;;4827147;29;32353;-63
2021/09/27 09:42:01;;;;;;;19.25;6.72;;;;;;;;;;4826783;29;32451;-62
2021/09/27 09:44:38;;;;;;;15.52;5.30;;;;;;;;;;4826569;29;32462;-64
2021/09/27 09:47:10;;;;;;;13.15;5.10;;;;;;;;;;4826305;29;32948;-64
2021/09/27 09:49:54;;;;;;;11.00;4.80;;;;;;;;;;4826247;29;32442;-64
2021/09/27 09:52:33;;;;;;;9.57;4.38;;;;;;;;;;4825978;29;34869;-62
2021/09/27 09:55:00;;;;;;;8.88;3.42;;;;;;;;;;4827641;29;32388;-63
2021/09/27 09:57:34;;;;;;;9.27;3.75;;;;;;;;;;4828883;29;32593;-61
2021/09/27 10:00:09;;;;;;;9.45;4.10;;;;;;;;;;4829001;29;32195;-63
2021/09/27 10:02:38;;;;;;;12.05;4.18;;;;;;;;;;4838280;29;32320;-65
2021/09/27 10:05:08;;;;;;;13.23;4.38;;;;;;;;;;4847620;29;32556;-64
2021/09/27 10:07:45;;;;;;;9.68;4.25;;;;;;;;;;4847308;29;32854;-62
2021/09/27 10:10:32;;;;;;;11.00;3.92;;;;;;;;;;4847562;29;32354;-63
2021/09/27 10:13:02;;;;;;;12.02;3.63;;;;;;;;;;4848003;29;32572;-62
2021/09/27 10:15:51;;;;;;;7.13;3.67;;;;;;;;;;4848115;29;34145;-63
2021/09/27 10:18:26;;;;;;;6.95;3.33;;;;;;;;;;4847372;29;32360;-64
2021/09/27 10:21:05;;;;;;;10.90;3.75;;;;;;;;;;4842163;29;32321;-63
2021/09/27 10:23:36;;;;;;;11.23;4.28;;;;;;;;;;4819694;29;32329;-63
2021/09/27 10:26:30;;;;;;;9.90;3.90;;;;;;;;;;4828901;29;32386;-63
2021/09/27 10:29:04;;;;;;;7.15;3.83;;;;;;;;;;4825251;29;32365;-63
2021/09/27 10:31:36;;;;;;;9.70;3.75;;;;;;;;;;4829362;29;32967;-63
2021/09/27 10:34:09;;;;;;;10.48;3.75;;;;;;;;;;4830511;29;32282;-62
2021/09/27 10:36:41;;;;;;;8.50;4.47;;;;;;;;;;4847934;29;32276;-63
2021/09/27 10:39:09;;;;;;;8.20;3.45;;;;;;;;;;4847309;29;35743;-62
2021/09/27 10:41:53;;;;;;;8.35;3.95;;;;;;;;;;4847271;29;32711;-63
2021/09/27 10:44:25;;;;;;;7.20;3.85;;;;;;;;;;4847676;29;32500;-64
2021/09/27 10:47:02;;;;;;;10.85;4.07;;;;;;;;;;4847610;29;32232;-62
2021/09/27 10:49:34;;;;;;;13.40;4.30;;;;;;;;;;4847163;29;32417;-63
2021/09/27 10:52:24;;;;;;;11.40;4.55;;;;;;;;;;4846942;29;32524;-63
2021/09/27 10:55:00;;;;;;;14.15;4.25;;;;;;;;;;4847188;29;32228;-63
2021/09/27 10:57:39;;;;;;;12.45;4.18;;;;;;;;;;4847292;29;32494;-62
2021/09/27 11:00:17;;;;;;;12.65;3.65;;;;;;;;;;4846906;29;32816;-62
2021/09/27 11:02:54;;;;;;;13.02;4.32;;;;;;;;;;4836785;29;35171;-63
2021/09/27 11:05:43;;;;;;;9.82;4.05;;;;;;;;;;4828344;29;32463;-62
2021/09/27 11:08:14;;;;;;;9.30;4.43;;;;;;;;;;4842404;29;32805;-62
2021/09/27 11:10:44;;;;;;;10.60;5.05;;;;;;;;;;4847043;29;32249;-62
2021/09/27 11:13:32;;;;;;;9.98;4.85;;;;;;;;;;4847036;29;32320;-62
2021/09/27 11:16:00;;;;;;;9.48;4.35;;;;;;;;;;4846956;29;32444;-62
2021/09/27 11:18:30;;;;;;;8.63;4.40;;;;;;;;;;4846663;29;32531;-63
2021/09/27 11:21:21;;;;;;;9.00;3.88;;;;;;;;;;4847207;29;32338;-63
2021/09/27 11:24:02;;;;;;;9.82;3.88;;;;;;;;;;4842416;29;32446;-64
2021/09/27 11:26:35;;;;;;;7.07;3.75;;;;;;;;;;4842136;29;34799;-63
2021/09/27 11:29:31;;;;;;;8.80;4.18;;;;;;;;;;4830093;29;32375;-64
2021/09/27 11:32:50;;;;;;;8.07;4.60;;;;;;;;;;4831961;29;32329;-64
2021/09/27 11:35:49;;;;;;;6.60;3.70;;;;;;;;;;4814752;29;32835;-63
2021/09/27 11:38:30;;;;;;;;;;;;;;;;;;4847140;29;32508;-64
2021/09/27 11:41:27;;;;;;;10.40;3.67;;;;;;;;;;4846399;29;32571;-63
2021/09/27 11:44:16;;;;;;;5.38;4.13;;;;;;;;;;4846969;29;32414;-63
2021/09/27 11:47:00;;;;;;;8.60;3.97;;;;;;;;;;4827654;29;32378;-63
2021/09/27 11:49:47;;;;;;;8.90;4.53;;;;;;;;;;4845850;29;32418;-65
2021/09/27 11:52:35;;;;;;;10.48;4.78;;;;;;;;;;4845117;29;34628;-63
2021/09/27 11:55:05;;;;;;;9.43;4.40;;;;;;;;;;4846040;29;32351;-63
2021/09/27 11:57:39;;;;;;;7.85;4.50;;;;;;;;;;4846199;29;32728;-63
2021/09/27 12:00:12;;;;;;;10.02;4.70;;;;;;;;;;4846525;29;32445;-63
2021/09/27 12:02:52;;;;;;;7.82;3.65;;;;;;;;;;4836902;29;35099;-65
2021/09/27 12:05:34;;;;;;;10.35;4.45;;;;;;;;;;4827366;29;32630;-63
2021/09/27 12:08:05;;;;;;;10.77;5.18;;;;;;;;;;4827396;29;32619;-63
2021/09/27 12:10:40;;;;;;;9.95;4.28;;;;;;;;;;4827757;29;32451;-64
2021/09/27 12:13:13;;;;;;;7.97;4.43;;;;;;;;;;4795141;29;32361;-63
2021/09/27 12:15:45;;;;;;;7.35;4.70;;;;;;;;;;4810462;29;34049;-63
2021/09/27 12:18:39;;;;;;;8.55;4.95;;;;;;;;;;4827172;29;32852;-65
2021/09/27 12:21:12;;;;;;;9.65;5.43;;;;;;;;;;4827273;29;32364;-63
2021/09/27 12:23:47;;;;;;;11.57;4.85;;;;;;;;;;4827636;29;32469;-64
2021/09/27 12:26:23;;;;;;;9.10;4.82;;;;;;;;;;4827460;29;34390;-64
2021/09/27 12:29:02;;;;;;;9.25;4.70;;;;;;;;;;4812461;29;32512;-65
2021/09/27 12:31:28;;;;;;;8.95;4.65;;;;;;;;;;4840336;29;32430;-63
2021/09/27 12:33:55;;;;;;;7.07;5.05;;;;;;;;;;4827322;29;32476;-63
2021/09/27 12:36:24;;;;;;;8.68;3.70;;;;;;;;;;4827518;29;32497;-66
2021/09/27 12:38:54;;;;;;;10.23;4.97;;;;;;;;;;4827151;29;34542;-65
2021/09/27 12:41:24;;;;;;;8.73;3.63;;;;;;;;;;4827263;29;32544;-63
2021/09/27 12:43:51;;;;;;;11.75;5.32;;;;;;;;;;4827500;29;32470;-63
2021/09/27 12:46:23;;;;;;;6.85;3.50;;;;;;;;;;4811010;29;32416;-64
2021/09/27 12:48:57;;;;;;;7.82;4.63;;;;;;;;;;4827303;29;35123;-64
2021/09/27 12:51:29;;;;;;;12.75;5.22;;;;;;;;;;4827236;29;32401;-65
2021/09/27 12:54:02;;;;;;;12.00;6.47;;;;;;;;;;4827169;29;32541;-64
2021/09/27 12:56:29;;;;;;;10.65;6.90;;;;;;;;;;4827012;29;32281;-65
2021/09/27 12:59:00;;;;;;;18.77;7.28;;;;;;;;;;4827178;29;32558;-65
2021/09/27 13:01:29;;;;;;;16.80;9.00;;;;;;;;;;4827688;29;35346;-62
2021/09/27 13:04:03;;;;;;;21.45;10.48;;;;;;;;;;4845503;29;32734;-62
2021/09/27 13:06:34;;;;;;;22.08;11.38;;;;;;;;;;4845635;29;32479;-64
2021/09/27 13:09:13;;;;;;;22.73;11.82;;;;;;;;;;4845245;29;32469;-65
2021/09/27 13:11:44;;;;;;;21.05;12.02;;;;;;;;;;4844705;29;35014;-64
2021/09/27 13:14:24;;;;;;;26.70;13.15;;;;;;;;;;4845135;29;32996;-65
2021/09/27 13:16:55;;;;;;;24.52;11.15;;;;;;;;;;4845386;29;32470;-63
2021/09/27 13:19:40;;;;;;;21.58;10.32;;;;;;;;;;4845100;29;32473;-65
2021/09/27 13:22:14;;;;;;;18.67;9.73;;;;;;;;;;4845698;29;32496;-63
2021/09/27 13:24:44;;;;;;;19.30;9.90;;;;;;;;;;4845319;29;34044;-65
2021/09/27 13:27:15;;;;;;;19.45;10.43;;;;;;;;;;4844452;29;32195;-65
2021/09/27 13:29:49;;;;;;;16.27;9.68;;;;;;;;;;4844488;29;32335;-64
2021/09/27 13:32:34;;;;;;;19.02;11.18;;;;;;;;;;4841433;29;32382;-65
2021/09/27 13:35:18;;;;;;;23.33;12.48;;;;;;;;;;4819386;29;35253;-63
2021/09/27 13:38:11;;;;;;;25.35;13.10;;;;;;;;;;4829814;29;32494;-63
2021/09/27 13:40:43;;;;;;;32.00;14.55;;;;;;;;;;4816137;29;32459;-64
2021/09/27 13:43:22;;;;;;;27.35;15.05;;;;;;;;;;4829356;29;32424;-66
2021/09/27 13:45:55;;;;;;;26.60;15.93;;;;;;;;;;4829954;29;32290;-65
2021/09/27 13:48:22;;;;;;;33.13;16.88;;;;;;;;;;4829047;29;34344;-63
2021/09/27 13:50:52;;;;;;;38.83;19.80;;;;;;;;;;4812511;29;32740;-64
2021/09/27 13:53:25;;;;;;;40.55;21.85;;;;;;;;;;4828971;29;32318;-63
2021/09/27 13:55:54;;;;;;;47.75;20.90;;;;;;;;;;4829308;29;32391;-63
2021/09/27 13:58:21;;;;;;;51.35;24.90;;;;;;;;;;4812138;29;34272;-64
2021/09/27 14:00:48;;;;;;;;;;;;;;;;;;4829164;29;32360;-65
2021/09/27 14:03:14;;;;;;;45.78;22.27;;;;;;;;;;4842598;29;32398;-64
2021/09/27 14:05:41;;;;;;;40.33;16.17;;;;;;;;;;4847537;29;32415;-66
2021/09/27 14:08:10;;;;;;;26.90;13.70;;;;;;;;;;4829581;29;32589;-65
2021/09/27 14:10:37;;;;;;;24.00;12.00;;;;;;;;;;4846473;29;34036;-64
2021/09/27 14:13:09;;;;;;;21.77;10.13;;;;;;;;;;4845668;29;32532;-65
2021/09/27 14:15:35;;;;;;;17.02;8.60;;;;;;;;;;4843667;29;32592;-64
2021/09/27 14:18:02;;;;;;;16.90;7.22;;;;;;;;;;4840517;29;32371;-63
2021/09/27 14:20:29;;;;;;;13.52;6.50;;;;;;;;;;4829039;29;34866;-64
2021/09/27 14:22:56;;;;;;;11.48;6.10;;;;;;;;;;4829022;29;32436;-64
2021/09/27 14:25:24;;;;;;;11.00;5.30;;;;;;;;;;4829074;29;32329;-64
2021/09/27 14:27:51;;;;;;;9.75;5.35;;;;;;;;;;4816734;29;32434;-63
2021/09/27 14:30:21;;;;;;;11.07;5.20;;;;;;;;;;4838477;29;32256;-62
2021/09/27 14:32:48;;;;;;;10.98;5.40;;;;;;;;;;4841855;29;34990;-62
2021/09/27 14:35:14;;;;;;;;;;;;;;;;;;4836130;29;32355;-62
2021/09/27 14:37:41;;;;;;;8.70;3.75;;;;;;;;;;4837465;29;32549;-62
2021/09/27 14:40:10;;;;;;;13.82;4.28;;;;;;;;;;4841521;29;32446;-63
2021/09/27 14:42:38;;;;;;;10.43;4.93;;;;;;;;;;4818016;29;37285;-63
2021/09/27 14:45:08;;;;;;;11.35;4.45;;;;;;;;;;4840019;29;32593;-64
2021/09/27 14:47:37;;;;;;;9.60;3.83;;;;;;;;;;4839485;29;32505;-64
2021/09/27 14:50:05;;;;;;;13.25;4.57;;;;;;;;;;4841030;29;32430;-63
2021/09/27 14:52:32;;;;;;;12.73;3.88;;;;;;;;;;4844226;29;32508;-64
2021/09/27 14:54:58;;;;;;;12.95;4.70;;;;;;;;;;4844509;29;34840;-63
2021/09/27 14:57:25;;;;;;;12.20;4.38;;;;;;;;;;4839039;29;32648;-61
2021/09/27 14:59:51;;;;;;;6.88;3.53;;;;;;;;;;4838716;29;32620;-62
2021/09/27 15:02:18;;;;;;;8.55;4.15;;;;;;;;;;4838910;29;32491;-66
2021/09/27 15:04:46;;;;;;;9.35;4.45;;;;;;;;;;4837905;29;34157;-62
2021/09/27 15:07:15;;;;;;;10.50;3.65;;;;;;;;;;4839172;29;32561;-63
2021/09/27 15:09:42;;;;;;;10.02;4.22;;;;;;;;;;4836227;29;32458;-64
2021/09/27 15:12:09;;;;;;;9.85;3.90;;;;;;;;;;4840015;29;32507;-65
2021/09/27 15:14:36;;;;;;;14.10;4.50;;;;;;;;;;4843785;29;32451;-62
2021/09/27 15:17:03;;;;;;;12.40;4.43;;;;;;;;;;4844621;29;35031;-64
2021/09/27 15:19:30;;;;;;;9.98;3.60;;;;;;;;;;4835236;29;32364;-65